EDDGEDDW

Guest
Details From EDDG - Muenster Osnabrueck
To EDDW - Bremen
Flight Number -
Tags decoded
Created
Modified
Stats Distance 78 nm / 144 km
Max Altitude 0 ft / 0 m
Waypoints 5
Social Downloads 1
Likes 0
Share VATSIM

Download

Looking for another format? Having issues loading an existing format? Contact us
Advertisement - Login to hide

Notes

Requested: EDDG OSN M170 BASUM T820 PIXUR EDDW Unmatched points: M170 T820

Route

EDDG OSN BASUM PIXUR EDDW

ID Type Via Altitude Latitude Longitude Leg Dist Tot Dist Heading (true) Name
O EDDG APT - 0 ft / 0 m 52.13458˚ 7.68467˚ - 0 nm - Muenster Osnabrueck
OSN VOR - 0 ft / 0 m 52.20014˚ 8.28552˚ 22 nm 22 nm 80° / 80° OSNABRUCK VOR
BASUM FIX - 0 ft / 0 m 52.77194˚ 8.78861˚ 38 nm 61 nm 28° / 28° -
PIXUR FIX - 0 ft / 0 m 52.96361˚ 8.78722˚ 11 nm 72 nm 360° / 360° -
O EDDW APT - 0 ft / 0 m 53.04571˚ 8.78900˚ 4 nm 77 nm 1° / 1° Bremen

Altitude Profile

Advertisement - Login to hide

EDDG

Details ICAO EDDG (FMO)
Name Muenster Osnabrueck
Region Germany - Civil
Timezone Europe/Berlin (UTC+2.0)
Stats Elevation 159 ft / 48 m (AMSL)
Location 52.134580° 7.684669°
Runways 1
Magnetic Variation 2.131° E

METAR

EDDG 271520Z 08005KT 360V160 9999 -SHRA FEW035CB SCT090 BKN120 26/13 Q1017 TEMPO 4500 TSRA

Decode

TAF

TAF EDDG 271100Z 2712/2812 08008KT 9999 FEW040 TEMPO 2714/2720 TSRA BKN040CB PROB30 TEMPO 2714/2717 3000 +TSRAGR BECMG 2716/2719 08003KT PROB30 TEMPO 2723/2802 TSRA BKN040CB

Decode

Departure Runways

ID Width Length Bearing (true) Bearing (mag) Surface Threshold Offset Overrun Length
07 148 ft / 45 m 7,303 ft / 2,226 m 70.93° 68.80° Asphalt 151 ft / 46 m 0 ft / 0 m
25 148 ft / 45 m 7,303 ft / 2,226 m 250.96° 248.83° Asphalt 292 ft / 89 m 0 ft / 0 m

EDDW

Details ICAO EDDW (BRE)
Name Bremen
Region Germany - Civil
Timezone Europe/Berlin (UTC+2.0)
Stats Elevation 14 ft / 4 m (AMSL)
Location 53.045715° 8.789003°
Runways 2
Magnetic Variation 2.467° E

METAR

EDDW 271520Z 13005KT 070V170 CAVOK 27/10 Q1018 NOSIG

Decode

TAF

TAF EDDW 271100Z 2712/2812 08009KT 9999 FEW045 PROB30 TEMPO 2718/2806 4000 TSRA BKN030CB

Decode

Destination Runways

ID Width Length Bearing (true) Bearing (mag) Surface Threshold Offset Overrun Length
05 75 ft / 23 m 2,298 ft / 700 m 51.18° 48.71° Asphalt 0 ft / 0 m 0 ft / 0 m
09 151 ft / 46 m 8,616 ft / 2,626 m 87.78° 85.31° Asphalt 945 ft / 288 m 0 ft / 0 m
23 75 ft / 23 m 2,298 ft / 700 m 231.19° 228.72° Asphalt 0 ft / 0 m 0 ft / 0 m
27 151 ft / 46 m 8,616 ft / 2,626 m 267.82° 265.35° Asphalt 984 ft / 300 m 0 ft / 0 m

Approach Navaids

Runway Type Ident Frequency Range Bearing (true) Bearing (mag) Slope Elevation
09 Localiser IBRE 110.30 MHz 18 nm / 33 km 87.77° 85.30° - 13 ft / 4 m (AMSL)
09 Glidescope IBRE 110.30 MHz 10 nm / 19 km 87.80° 85.33° 3.00° 13 ft / 4 m (AMSL)
27 Localiser IBRW 110.90 MHz 18 nm / 33 km 267.87° 265.41° - 14 ft / 4 m (AMSL)
27 Glidescope IBRW 110.90 MHz 10 nm / 19 km 267.80° 265.33° 3.00° 14 ft / 4 m (AMSL)

Popular Alternatives